createdAt,value
2023-04-14T00:01:57.932Z,100055.34
2023-04-14T00:04:24.914Z,100044.81
2023-04-14T00:06:52.778Z,100047.19
2023-04-14T00:09:19.616Z,100024.50
2023-04-14T00:11:46.579Z,100025.94
2023-04-14T00:14:13.520Z,100029.81
2023-04-14T00:16:40.902Z,100030.81
2023-04-14T00:19:08.209Z,100037.66
2023-04-14T00:21:35.081Z,100037.66
2023-04-14T00:24:01.932Z,100043.56
2023-04-14T00:26:29.078Z,100034.03
2023-04-14T00:28:56.044Z,100033.53
2023-04-14T00:31:24.975Z,100034.59
2023-04-14T00:33:52.513Z,100037.72
2023-04-14T00:36:19.976Z,100033.94
2023-04-14T00:38:47.110Z,100033.38
2023-04-14T00:41:14.279Z,100033.59
2023-04-14T00:43:41.844Z,100032.25
2023-04-14T00:46:09.439Z,100034.34
2023-04-14T00:48:37.220Z,100033.53
2023-04-14T00:51:04.747Z,100028.16
2023-04-14T00:53:32.974Z,100027.56
2023-04-14T00:56:04.001Z,100032.91
2023-04-14T00:58:31.887Z,100030.25
2023-04-14T01:00:59.155Z,100027.81
2023-04-14T01:03:26.714Z,100030.94
2023-04-14T01:05:53.838Z,100030.31
2023-04-14T01:08:22.036Z,100023.84
2023-04-14T01:11:20.400Z,100032.88
2023-04-14T01:14:03.908Z,100029.66
2023-04-14T01:16:37.479Z,100029.91
2023-04-14T01:19:29.555Z,100026.34
2023-04-14T01:22:01.960Z,100033.19
2023-04-14T01:25:01.363Z,100020.94
2023-04-14T01:28:07.326Z,100025.69
2023-04-14T01:30:43.781Z,100025.91
2023-04-14T01:33:19.136Z,100034.13
2023-04-14T01:35:52.710Z,100029.38
2023-04-14T01:38:25.771Z,100026.72
2023-04-14T01:40:57.986Z,100031.00
2023-04-14T01:43:28.892Z,100020.94
2023-04-14T01:46:01.001Z,100030.06
2023-04-14T01:48:29.320Z,100025.75
2023-04-14T01:50:58.879Z,100030.53
2023-04-14T01:53:30.009Z,100033.41
2023-04-14T01:55:59.744Z,100037.38
2023-04-14T01:58:32.675Z,100037.38
2023-04-14T02:01:01.063Z,100041.56
2023-04-14T02:03:30.085Z,100040.19
2023-04-14T02:05:57.734Z,100043.19
2023-04-14T02:08:25.793Z,100045.91
2023-04-14T02:10:54.773Z,100051.34
2023-04-14T02:13:27.541Z,100062.81
2023-04-14T02:15:56.470Z,100072.66
2023-04-14T02:18:23.870Z,100071.03
2023-04-14T02:20:54.035Z,100065.94
2023-04-14T02:23:22.285Z,100069.41
2023-04-14T02:26:05.135Z,100070.78
2023-04-14T02:28:36.856Z,100072.88
2023-04-14T02:31:24.614Z,100068.84
2023-04-14T02:33:57.106Z,100075.13
2023-04-14T02:36:33.482Z,100074.56
2023-04-14T02:39:12.250Z,100074.00
2023-04-14T02:41:42.389Z,100080.59
2023-04-14T02:44:23.867Z,100085.09
2023-04-14T02:47:07.591Z,100086.03
2023-04-14T02:49:43.784Z,100092.66
2023-04-14T02:52:14.287Z,100091.72
2023-04-14T02:54:43.874Z,100086.66
2023-04-14T02:57:13.069Z,100088.75
2023-04-14T02:59:46.202Z,100092.69
2023-04-14T03:02:14.377Z,100096.16
2023-04-14T03:04:45.902Z,100093.50
2023-04-14T03:07:47.889Z,100094.22
2023-04-14T03:10:17.891Z,100099.19
2023-04-14T03:12:47.309Z,100096.75
2023-04-14T03:15:16.409Z,100098.41
2023-04-14T03:17:48.091Z,100087.75
2023-04-14T03:20:20.084Z,100086.34
2023-04-14T03:22:58.209Z,100090.88
2023-04-14T03:25:28.308Z,100084.97
2023-04-14T03:28:02.057Z,100082.81
2023-04-14T03:30:32.803Z,100083.25
2023-04-14T03:33:07.468Z,100080.59
2023-04-14T03:35:37.205Z,100093.44
2023-04-14T03:38:10.104Z,100100.94
2023-04-14T03:40:41.004Z,100100.59
2023-04-14T03:43:10.523Z,100096.22
2023-04-14T03:45:40.725Z,100092.16
2023-04-14T03:48:12.597Z,100097.97
2023-04-14T03:50:46.732Z,100097.63
2023-04-14T03:53:16.456Z,100099.84
2023-04-14T03:55:46.845Z,100092.22
2023-04-14T03:58:16.132Z,100093.84
2023-04-14T04:00:45.292Z,100099.72
2023-04-14T04:03:15.918Z,100100.53
2023-04-14T04:05:45.175Z,100095.94
2023-04-14T04:08:13.390Z,100102.28
2023-04-14T04:10:42.857Z,100103.31
2023-04-14T04:13:16.440Z,100096.72
2023-04-14T04:15:46.575Z,100103.31
2023-04-14T04:18:17.261Z,100118.44
2023-04-14T04:20:47.150Z,100104.81
2023-04-14T04:23:20.663Z,100113.72
2023-04-14T04:25:50.324Z,100111.19
2023-04-14T04:28:27.878Z,100107.00
2023-04-14T04:30:56.705Z,100114.84
2023-04-14T04:33:24.261Z,100113.25
2023-04-14T04:35:53.178Z,100115.31
2023-04-14T04:38:24.309Z,100116.25
2023-04-14T04:40:52.749Z,100122.03
2023-04-14T04:43:24.089Z,100124.53
2023-04-14T04:46:18.537Z,100131.94
2023-04-14T04:48:46.590Z,100131.13
2023-04-14T04:51:13.613Z,100130.22
2023-04-14T04:53:41.188Z,100132.75
2023-04-14T04:56:08.741Z,100133.81
2023-04-14T04:58:36.109Z,100139.34
2023-04-14T05:01:10.778Z,100127.94
2023-04-14T05:03:38.341Z,100128.50
2023-04-14T05:06:06.206Z,100124.78
2023-04-14T05:08:33.611Z,100129.53
2023-04-14T05:11:01.469Z,100131.75
2023-04-14T05:13:28.863Z,100134.63
2023-04-14T05:16:06.629Z,100131.16
2023-04-14T05:18:34.610Z,100136.00
2023-04-14T05:21:09.283Z,100135.88
2023-04-14T05:23:38.512Z,100136.84
2023-04-14T05:26:26.943Z,100140.16
2023-04-14T05:28:53.858Z,100143.53
2023-04-14T05:31:20.847Z,100136.94
2023-04-14T05:33:47.977Z,100134.16
2023-04-14T05:36:15.299Z,100140.78
2023-04-14T05:38:43.230Z,100145.59
2023-04-14T05:41:12.306Z,100150.13
2023-04-14T05:43:39.716Z,100149.88
2023-04-14T05:46:07.074Z,100151.50
2023-04-14T05:48:38.371Z,100156.59
2023-04-14T05:51:05.664Z,100154.97
2023-04-14T05:53:32.613Z,100154.75
2023-04-14T05:55:59.622Z,100154.16
2023-04-14T05:58:26.945Z,100155.78
2023-04-14T06:00:53.954Z,100161.56
2023-04-14T06:03:21.527Z,100152.53
2023-04-14T06:05:49.008Z,100140.41
2023-04-14T06:08:15.914Z,100147.44
2023-04-14T06:10:43.089Z,100157.41
2023-04-14T06:13:11.485Z,100162.59
2023-04-14T06:15:38.710Z,100166.41
2023-04-14T06:18:09.670Z,100162.56
2023-04-14T06:20:39.686Z,100150.66
2023-04-14T06:23:06.876Z,100152.94
2023-04-14T06:25:37.246Z,100149.34
2023-04-14T06:28:04.786Z,100160.75
2023-04-14T06:30:34.721Z,100145.94
2023-04-14T06:33:07.434Z,100147.00
2023-04-14T06:35:35.805Z,100137.69
2023-04-14T06:38:05.253Z,100136.19
2023-04-14T06:40:35.608Z,100142.06
2023-04-14T06:43:02.904Z,100143.97
2023-04-14T06:45:29.818Z,100149.06
2023-04-14T06:47:57.044Z,100154.44
2023-04-14T06:50:24.588Z,100147.06
2023-04-14T06:52:51.668Z,100139.16
2023-04-14T06:55:19.447Z,100143.41
2023-04-14T06:57:47.498Z,100139.22
2023-04-14T07:00:17.316Z,100139.16
2023-04-14T07:02:44.611Z,100135.50
2023-04-14T07:05:14.821Z,100132.69
2023-04-14T07:07:41.925Z,100141.81
2023-04-14T07:10:13.161Z,100142.31
2023-04-14T07:12:40.014Z,100141.00
2023-04-14T07:15:07.797Z,100142.00
2023-04-14T07:17:36.954Z,100145.28
2023-04-14T07:20:05.614Z,100149.84
2023-04-14T07:22:33.626Z,100145.16
2023-04-14T07:25:00.851Z,100141.88
2023-04-14T07:27:28.812Z,100145.53
2023-04-14T07:29:56.168Z,100139.25
2023-04-14T07:32:26.141Z,100141.59
2023-04-14T07:34:53.771Z,100138.09
2023-04-14T07:37:20.996Z,100140.44
2023-04-14T07:39:48.166Z,100141.97
2023-04-14T07:42:15.397Z,100136.00
2023-04-14T07:44:42.233Z,100134.06
2023-04-14T07:47:09.155Z,100133.84
2023-04-14T07:49:36.596Z,100134.16
2023-04-14T07:52:06.234Z,100139.78
2023-04-14T07:54:33.540Z,100132.59
2023-04-14T07:57:03.949Z,100127.56
2023-04-14T07:59:34.935Z,100129.22
2023-04-14T08:02:02.089Z,100129.47
2023-04-14T08:04:29.243Z,100123.88
2023-04-14T08:06:56.845Z,100129.00
2023-04-14T08:09:24.090Z,100130.34
2023-04-14T08:11:54.169Z,100125.53
2023-04-14T08:14:21.471Z,100128.25
2023-04-14T08:16:48.783Z,100126.94
2023-04-14T08:19:18.475Z,100124.53
2023-04-14T08:21:48.380Z,100117.63
2023-04-14T08:24:18.879Z,100116.88
2023-04-14T08:26:45.857Z,100108.13
2023-04-14T08:29:12.930Z,100115.41
2023-04-14T08:31:40.169Z,100109.84
2023-04-14T08:34:07.642Z,100110.41
2023-04-14T08:36:38.648Z,100113.38
2023-04-14T08:39:06.104Z,100111.25
2023-04-14T08:41:44.290Z,100110.38
2023-04-14T08:44:14.612Z,100116.16
2023-04-14T08:46:43.148Z,100101.97
2023-04-14T08:49:16.243Z,100102.03
2023-04-14T08:51:43.967Z,100088.97
2023-04-14T08:54:12.467Z,100084.69
2023-04-14T08:56:42.057Z,100074.13
2023-04-14T08:59:33.725Z,100067.31
2023-04-14T09:02:07.259Z,100060.59
2023-04-14T09:04:35.926Z,100056.09
2023-04-14T09:07:07.243Z,100055.59
2023-04-14T09:09:34.397Z,100045.28
2023-04-14T09:12:03.778Z,100045.31
2023-04-14T09:14:33.372Z,100040.59
2023-04-14T09:17:00.182Z,100036.66
2023-04-14T09:19:29.121Z,100039.41
2023-04-14T09:21:56.960Z,100030.34
2023-04-14T09:24:32.032Z,100020.09
2023-04-14T09:27:02.076Z,100011.69
2023-04-14T09:29:29.712Z,100012.28
2023-04-14T09:31:57.454Z,100010.06
2023-04-14T09:34:24.865Z,100004.69
2023-04-14T09:37:05.519Z,100008.00
2023-04-14T09:39:39.222Z,100011.88
2023-04-14T09:42:07.281Z,99999.88
2023-04-14T09:44:59.065Z,100004.06
2023-04-14T09:47:30.460Z,99993.94
2023-04-14T09:49:59.669Z,99998.66
2023-04-14T09:52:38.339Z,99984.31
2023-04-14T09:55:15.366Z,99986.41
2023-04-14T09:57:47.807Z,99977.84
2023-04-14T10:00:18.225Z,99975.47
2023-04-14T10:03:00.023Z,99982.75
2023-04-14T10:05:29.069Z,99966.31
2023-04-14T10:08:05.929Z,99965.31
2023-04-14T10:10:33.455Z,99967.25
2023-04-14T10:13:01.448Z,99965.53
2023-04-14T10:15:29.233Z,99958.88
2023-04-14T10:17:56.540Z,99955.16
2023-04-14T10:20:24.922Z,99947.41
2023-04-14T10:22:53.954Z,99949.41
2023-04-14T10:25:21.537Z,99951.78
2023-04-14T10:27:50.167Z,99947.44
2023-04-14T10:30:20.958Z,99952.50
2023-04-14T10:32:58.143Z,99943.69
2023-04-14T10:35:41.804Z,99947.06
2023-04-14T10:38:11.202Z,99933.19
2023-04-14T10:40:52.674Z,99932.84
2023-04-14T10:43:22.215Z,99921.88
2023-04-14T10:45:56.519Z,99930.03
2023-04-14T10:48:45.778Z,99920.75
2023-04-14T10:51:13.290Z,99922.56
2023-04-14T10:53:50.329Z,99917.13
2023-04-14T10:56:21.686Z,99924.28
2023-04-14T10:58:55.234Z,99914.94
2023-04-14T11:01:32.311Z,99906.25
2023-04-14T11:04:23.733Z,99897.19
2023-04-14T11:06:55.527Z,99899.31
2023-04-14T11:10:28.852Z,99886.38
2023-04-14T11:14:36.388Z,99877.19
2023-04-14T11:46:44.163Z,99835.06
2023-04-14T12:05:36.201Z,99801.88
2023-04-14T12:51:31.552Z,99798.56
2023-04-14T12:57:41.381Z,99790.91
2023-04-14T13:01:53.314Z,99783.53
2023-04-14T13:17:34.592Z,99763.06
2023-04-14T13:26:01.763Z,99759.97
2023-04-14T13:49:28.847Z,99738.25
2023-04-14T14:00:51.594Z,99720.47
2023-04-14T14:34:23.825Z,99692.38
2023-04-14T14:54:50.638Z,99688.88
2023-04-14T15:19:10.581Z,99683.22
2023-04-14T15:22:35.383Z,99684.56
2023-04-14T15:30:00.457Z,99689.00
2023-04-14T15:33:12.986Z,99686.19
2023-04-14T15:36:30.233Z,99681.50
2023-04-14T15:43:30.063Z,99679.25
2023-04-14T15:46:22.880Z,99669.38
2023-04-14T15:58:08.772Z,99668.22
2023-04-14T16:05:03.209Z,99674.91
2023-04-14T16:08:12.741Z,99686.44
2023-04-14T16:10:41.379Z,99695.31
2023-04-14T16:13:14.203Z,99686.75
2023-04-14T16:15:51.004Z,99683.13
2023-04-14T16:18:45.919Z,99692.88
2023-04-14T16:21:37.437Z,99689.31
2023-04-14T16:24:27.932Z,99682.41
2023-04-14T16:27:00.843Z,99682.09
2023-04-14T16:32:50.370Z,99684.53
2023-04-14T16:35:54.294Z,99684.84
2023-04-14T16:38:40.062Z,99681.47
2023-04-14T16:41:16.724Z,99685.84
2023-04-14T16:43:56.368Z,99688.44
2023-04-14T16:46:26.126Z,99685.44
2023-04-14T16:48:56.196Z,99684.56
2023-04-14T16:51:29.428Z,99685.44
2023-04-14T16:54:01.047Z,99691.38
2023-04-14T16:56:31.697Z,99685.03
2023-04-14T16:59:09.762Z,99686.84
2023-04-14T17:01:38.909Z,99681.81
2023-04-14T17:04:20.013Z,99687.19
2023-04-14T17:07:17.293Z,99693.31
2023-04-14T17:09:47.571Z,99693.00
2023-04-14T17:12:33.973Z,99695.25
2023-04-14T17:15:05.716Z,99696.53
2023-04-14T17:17:36.857Z,99697.34
2023-04-14T17:20:10.831Z,99699.75
2023-04-14T17:22:42.683Z,99702.50
2023-04-14T17:25:22.862Z,99701.19
2023-04-14T17:28:06.837Z,99702.34
2023-04-14T17:31:06.333Z,99697.56
2023-04-14T17:34:04.805Z,99695.00
2023-04-14T17:37:25.566Z,99696.25
2023-04-14T17:40:05.304Z,99702.22
2023-04-14T17:43:08.097Z,99697.75
2023-04-14T17:45:44.785Z,99706.28
2023-04-14T17:48:57.580Z,99700.03
2023-04-14T17:51:33.241Z,99703.16
2023-04-14T17:54:10.820Z,99703.41
2023-04-14T17:57:16.828Z,99702.59
2023-04-14T18:00:17.740Z,99706.13
2023-04-14T18:03:06.129Z,99693.91
2023-04-14T18:05:43.370Z,99701.97
2023-04-14T18:11:18.857Z,99714.22
2023-04-14T18:14:04.174Z,99708.44
2023-04-14T18:17:49.061Z,99718.47
2023-04-14T18:20:27.599Z,99718.72
2023-04-14T18:23:10.611Z,99706.09
2023-04-14T18:28:33.786Z,99728.00
2023-04-14T18:31:16.266Z,99722.75
2023-04-14T18:33:54.580Z,99732.81
2023-04-14T18:36:28.275Z,99731.03
2023-04-14T18:38:55.422Z,99724.91
2023-04-14T18:41:25.571Z,99728.72
2023-04-14T18:43:55.498Z,99726.59
2023-04-14T18:46:23.283Z,99729.91
2023-04-14T18:48:50.418Z,99732.88
2023-04-14T18:51:18.067Z,99734.28
2023-04-14T18:53:46.990Z,99732.69
2023-04-14T18:56:14.469Z,99734.09
2023-04-14T18:58:41.977Z,99739.25
2023-04-14T19:01:12.133Z,99737.19
2023-04-14T19:03:40.097Z,99736.97
2023-04-14T19:06:10.097Z,99741.63
2023-04-14T19:08:37.028Z,99737.25
2023-04-14T19:11:03.759Z,99743.03
2023-04-14T19:13:30.603Z,99743.91
2023-04-14T19:16:05.883Z,99750.19
2023-04-14T19:18:32.936Z,99749.16
2023-04-14T19:20:59.796Z,99756.75
2023-04-14T19:23:26.682Z,99755.72
2023-04-14T19:25:54.185Z,99765.50
2023-04-14T19:28:22.027Z,99761.00
2023-04-14T19:30:49.253Z,99761.38
2023-04-14T19:33:16.349Z,99772.75
2023-04-14T19:35:46.810Z,99762.03
2023-04-14T19:38:13.868Z,99768.03
2023-04-14T19:40:48.201Z,99768.59
2023-04-14T19:43:16.562Z,99769.97
2023-04-14T19:45:53.347Z,99771.38
2023-04-14T19:48:24.055Z,99770.91
2023-04-14T19:50:55.270Z,99769.38
2023-04-14T19:53:23.950Z,99762.97
2023-04-14T19:55:56.901Z,99758.69
2023-04-14T19:58:28.542Z,99762.75
2023-04-14T20:00:58.898Z,99763.03
2023-04-14T20:03:26.160Z,99758.81
2023-04-14T20:05:54.809Z,99770.19
2023-04-14T20:08:23.122Z,99769.16
2023-04-14T20:10:52.069Z,99765.13
2023-04-14T20:13:20.139Z,99759.84
2023-04-14T20:15:48.879Z,99763.91
2023-04-14T20:18:17.816Z,99764.47
2023-04-14T20:20:46.056Z,99761.88
2023-04-14T20:23:12.841Z,99763.56
2023-04-14T20:25:39.725Z,99767.44
2023-04-14T20:28:07.535Z,99763.94
2023-04-14T20:30:34.570Z,99759.44
2023-04-14T20:33:05.713Z,99757.31
2023-04-14T20:35:36.199Z,99749.81
2023-04-14T20:38:03.173Z,99755.47
2023-04-14T20:40:30.255Z,99752.06
2023-04-14T20:42:57.075Z,99747.84
2023-04-14T20:45:24.000Z,99762.94
2023-04-14T20:47:51.099Z,99756.78
2023-04-14T20:50:19.193Z,99760.34
2023-04-14T20:52:47.098Z,99762.50
2023-04-14T20:55:14.573Z,99758.78
2023-04-14T20:57:48.092Z,99759.66
2023-04-14T21:00:16.623Z,99760.00
2023-04-14T21:02:44.332Z,99763.81
2023-04-14T21:05:12.805Z,99760.59
2023-04-14T21:07:43.676Z,99761.97
2023-04-14T21:10:11.993Z,99762.78
2023-04-14T21:12:51.155Z,99757.47
2023-04-14T21:15:50.320Z,99760.69
2023-04-14T21:18:14.749Z,99773.13
2023-04-14T21:20:43.507Z,99766.13
2023-04-14T21:23:11.644Z,99768.28
2023-04-14T21:25:38.854Z,99768.28
2023-04-14T21:28:05.859Z,99771.50
2023-04-14T21:30:32.661Z,99766.72
2023-04-14T21:33:03.496Z,99770.22
2023-04-14T21:35:31.714Z,99770.00
2023-04-14T21:37:58.715Z,99765.69
2023-04-14T21:40:25.485Z,99768.66
2023-04-14T21:42:53.001Z,99761.97
2023-04-14T21:45:28.855Z,99765.75
2023-04-14T21:47:57.231Z,99767.91
2023-04-14T21:50:24.841Z,99768.97
2023-04-14T21:52:52.954Z,99767.41
2023-04-14T21:55:19.800Z,99766.38
2023-04-14T21:57:56.056Z,99767.72
2023-04-14T22:00:24.227Z,99770.69
2023-04-14T22:02:54.653Z,99769.88
2023-04-14T22:05:23.088Z,99769.88
2023-04-14T22:07:53.852Z,99769.38
2023-04-14T22:10:32.310Z,99768.81
2023-04-14T22:13:08.315Z,99775.25
2023-04-14T22:15:35.621Z,99776.91
2023-04-14T22:18:02.558Z,99774.53
2023-04-14T22:20:29.886Z,99776.72
2023-04-14T22:22:57.175Z,99774.06
2023-04-14T22:25:24.551Z,99779.47
2023-04-14T22:27:54.280Z,99778.44
2023-04-14T22:30:21.672Z,99774.16
2023-04-14T22:32:48.771Z,99771.50
2023-04-14T22:35:16.562Z,99773.13
2023-04-14T22:37:43.568Z,99775.81
2023-04-14T22:40:12.199Z,99778.47
2023-04-14T22:42:39.228Z,99775.00
2023-04-14T22:45:08.803Z,99779.06
2023-04-14T22:47:36.696Z,99784.41
2023-04-14T22:50:04.014Z,99778.53
2023-04-14T22:52:30.754Z,99776.41
2023-04-14T22:54:58.034Z,99779.63
2023-04-14T22:57:26.728Z,99781.25
2023-04-14T22:59:56.608Z,99782.88
2023-04-14T23:02:25.111Z,99783.44
2023-04-14T23:04:52.107Z,99793.63
2023-04-14T23:07:19.894Z,99786.16
2023-04-14T23:09:50.136Z,99784.56
2023-04-14T23:12:17.712Z,99790.47
2023-04-14T23:14:50.938Z,99798.22
2023-04-14T23:17:25.580Z,99792.34
2023-04-14T23:20:00.140Z,99791.28
2023-04-14T23:22:28.427Z,99803.06
2023-04-14T23:24:55.705Z,99795.28
2023-04-14T23:27:23.525Z,99791.53
2023-04-14T23:29:53.790Z,99793.16
2023-04-14T23:32:20.938Z,99793.97
2023-04-14T23:34:48.604Z,99803.59
2023-04-14T23:37:15.790Z,99804.66
2023-04-14T23:39:43.153Z,99806.00
2023-04-14T23:42:10.507Z,99801.75
2023-04-14T23:44:41.628Z,99800.16
2023-04-14T23:47:10.669Z,99795.88
2023-04-14T23:49:37.838Z,99797.47
2023-04-14T23:52:08.339Z,99791.59
2023-04-14T23:54:38.820Z,99797.25
2023-04-14T23:57:06.933Z,99794.84
2023-04-14T23:59:34.327Z,99788.69
